Oconomowoc, Wisconsin
Current Conditions -  °F | °C
As of 8:15 PM on Friday 28 Nov 2014 (Local Time) from KRYV Reporting Station
Unknown Precip Unknown Precip  
Wind Chill: 22°   Ceiling: 1300
Heat Index: 28°   Visibility: 10mi
Dew Point: 26°   Wind: 6mph
Humidity: 94%   Direction: 150°SSE
Pressure: 29.88"   Gusts: NA
Location:  43.11°N, 88.5°W
Report Text: KRYV 290215Z AUTO 15005KT 10SM UP OVC013 M02/M03 A2988 RMK AO2 T10231031
Loading
Personal Weather Stations






























Interactive Weather Map New forecast layout! Learn more

10-Day Weather Forecast

Advertisements
Track Severe Weather on mobile